Stations météo

réclame
Mon MeteoGroup
Malaga,Cmt, Espagne (8481): Température de l'air & dewpoint: 22.05.2018 07:00:00 - 28.05.2018 07:00:00 (CEST)Malaga,Cmt, Espagne (8481): Vitesse du vent & gusts: 22.05.2018 07:00:00 - 28.05.2018 07:00:00 (CEST)Malaga,Cmt, Espagne (8481): Direction du vent: 22.05.2018 07:00:00 - 28.05.2018 07:00:00 (CEST)Malaga,Cmt, Espagne (8481): reduced air pressure: 22.05.2018 07:00:00 - 28.05.2018 07:00:00 (CEST)Malaga,Cmt, Espagne (8481): Quantités de précipitations: 22.05.2018 07:00:00 - 28.05.2018 07:00:00 (CEST)
Date & Time tt [°C] td [°C] ff [km/h] ff [knt] fx [km/h] fx [knt] dd ppp [hPa] rr [mm]
28.05.2018 07:00:00 - - - - - - - - -
28.05.2018 06:00:00 17,2 8,9 4 2 12 7 W 1014,8 0,0
28.05.2018 05:00:00 18,0 8,3 7 4 11 6 W 1015,1 0,0
28.05.2018 04:00:00 18,3 9,0 6 4 12 6 WNW 1015,5 0,0
28.05.2018 03:00:00 18,9 9,7 5 3 8 5 WNW 1015,7 0,0
28.05.2018 02:00:00 19,5 9,7 6 3 16 9 W 1016,1 -
28.05.2018 01:00:00 20,1 10,2 5 3 16 9 WNW 1015,9 0,0
28.05.2018 00:00:00 21,1 10,9 6 3 21 11 WNW 1015,7 0,0
27.05.2018 23:00:00 22,7 11,4 8 4 24 13 NNW 1014,8 0,0
27.05.2018 22:00:00 24,2 11,2 9 5 22 12 NNW 1013,9 0,0
27.05.2018 21:00:00 25,8 11,6 6 3 20 11 N 1013,3 0,0
27.05.2018 20:00:00 27,7 12,8 5 3 19 10 NNW 1012,5 -
27.05.2018 19:00:00 27,9 13,1 8 4 22 12 N 1012,7 0,0
27.05.2018 18:00:00 26,6 13,0 4 2 22 12 WNW 1013,1 0,0
27.05.2018 17:00:00 26,5 13,3 11 6 26 14 W 1013,3 0,0
27.05.2018 16:00:00 25,6 14,0 3 2 31 17 ESE 1013,6 0,0
27.05.2018 15:00:00 26,7 14,1 16 9 29 16 S 1014,2 0,0
27.05.2018 14:00:00 26,9 14,3 4 2 22 12 S 1014,4 -
27.05.2018 13:00:00 25,5 16,0 10 6 19 10 SSE 1014,8 0,0
27.05.2018 12:00:00 24,3 14,7 4 2 11 6 WSW 1014,9 0,0
27.05.2018 11:00:00 22,2 15,8 4 2 9 5 SW 1015,3 0,0
27.05.2018 10:00:00 19,6 17,2 6 3 8 4 SW 1015,1 0,0
27.05.2018 09:00:00 18,4 16,4 5 3 8 5 W 1014,8 0,0
27.05.2018 08:00:00 18,6 16,0 4 2 8 5 W 1014,2 -
27.05.2018 07:00:00 18,9 15,8 6 3 11 6 SE 1014,1 0,0
27.05.2018 06:00:00 19,2 14,9 1 1 8 5 SE 1013,7 0,0
27.05.2018 05:00:00 18,8 15,9 2 1 8 4 S 1013,7 0,0
27.05.2018 04:00:00 18,9 15,2 3 2 8 5 SSE 1013,6 0,0
27.05.2018 03:00:00 18,9 14,8 0 0 6 4 N 1013,7 0,0
27.05.2018 02:00:00 19,0 12,7 3 2 5 3 ESE 1013,8 -
27.05.2018 01:00:00 19,3 12,5 2 1 8 4 W 1013,4 0,0
27.05.2018 00:00:00 19,5 12,7 1 1 10 5 NNW 1013,4 0,0
26.05.2018 23:00:00 20,4 12,1 2 1 20 11 WNW 1012,5 0,0
26.05.2018 22:00:00 20,6 12,8 15 8 24 13 ENE 1012,3 0,0
26.05.2018 21:00:00 21,3 13,0 14 7 22 12 E 1012,1 0,0
26.05.2018 20:00:00 22,0 13,4 13 7 23 12 E 1011,9 -
26.05.2018 19:00:00 23,1 13,6 15 8 26 14 ESE 1012,2 0,0
26.05.2018 18:00:00 22,9 14,2 16 9 24 13 ESE 1012,1 0,0
26.05.2018 17:00:00 23,6 13,5 16 8 23 13 E 1012,3 0,0
26.05.2018 16:00:00 24,8 12,4 15 8 23 12 SE 1012,8 0,0
26.05.2018 15:00:00 25,6 12,4 14 7 20 11 SE 1012,7 0,0
26.05.2018 14:00:00 25,6 12,1 13 7 20 11 SSE 1013,2 -
26.05.2018 13:00:00 25,5 11,7 5 3 13 7 SW 1013,1 0,0
26.05.2018 12:00:00 23,3 12,0 3 2 9 5 NNW 1013,1 0,0
26.05.2018 11:00:00 21,4 12,7 2 1 10 5 W 1013,6 0,0
26.05.2018 10:00:00 19,7 13,0 4 2 10 5 S 1014,3 0,0
26.05.2018 09:00:00 18,0 12,0 4 2 8 4 ESE 1014,6 0,0
26.05.2018 08:00:00 - - - - - - - - -
26.05.2018 07:00:00 15,0 11,0 6 3 12 6 W 1013,9 0,0
26.05.2018 06:00:00 16,2 11,3 3 1 8 4 NW 1013,6 0,0
26.05.2018 05:00:00 16,3 11,0 3 2 10 5 NW 1013,8 0,0
26.05.2018 04:00:00 16,3 9,7 6 3 10 5 W 1013,8 0,0
26.05.2018 03:00:00 16,7 7,8 8 4 10 5 W 1014,0 0,0
26.05.2018 02:00:00 18,2 7,6 3 2 10 6 NW 1014,1 -
26.05.2018 01:00:00 19,2 8,3 2 1 10 5 NNE 1013,9 0,0
26.05.2018 00:00:00 20,3 7,3 5 3 9 5 ESE 1013,9 0,0
25.05.2018 23:00:00 20,6 7,3 2 1 14 7 SW 1013,5 0,0
25.05.2018 22:00:00 22,1 7,1 11 6 30 16 WSW 1013,0 0,0
25.05.2018 21:00:00 23,5 8,4 19 11 30 16 WSW 1012,2 0,0
25.05.2018 20:00:00 25,3 9,6 12 6 24 13 SW 1011,9 -
25.05.2018 19:00:00 25,4 11,9 15 8 25 14 S 1011,8 0,0
25.05.2018 18:00:00 24,4 12,0 13 7 26 14 SSE 1012,1 0,0
25.05.2018 17:00:00 24,9 11,8 16 8 27 15 S 1012,6 0,0
25.05.2018 16:00:00 25,8 11,2 8 5 22 12 S 1012,9 0,0
25.05.2018 15:00:00 23,5 10,5 13 7 24 13 WSW 1013,4 0,0
25.05.2018 14:00:00 24,4 12,3 12 6 23 12 S 1013,2 -
25.05.2018 13:00:00 24,3 10,5 7 4 20 11 SSW 1013,4 0,0
25.05.2018 12:00:00 22,9 10,6 7 4 20 11 WSW 1014,0 0,0
25.05.2018 11:00:00 21,3 12,7 11 6 19 10 W 1014,4 0,0
25.05.2018 10:00:00 19,2 13,6 13 7 18 10 W 1014,4 0,0
25.05.2018 09:00:00 16,6 13,0 10 5 20 11 W 1014,5 0,0
25.05.2018 08:00:00 15,4 13,1 10 5 16 9 W 1014,0 -
25.05.2018 07:00:00 15,4 13,9 9 5 20 11 W 1013,6 0,0
25.05.2018 06:00:00 16,2 14,9 11 6 16 9 WSW 1013,2 0,2
25.05.2018 05:00:00 16,4 15,1 13 7 23 12 W 1013,4 1,2
25.05.2018 04:00:00 17,1 15,6 3 2 21 11 WNW 1013,6 1,8
25.05.2018 03:00:00 18,4 14,3 10 5 18 10 WSW 1013,7 0,1
25.05.2018 02:00:00 19,3 13,7 7 4 16 9 W 1014,0 -
25.05.2018 01:00:00 20,0 13,7 8 5 14 7 WSW 1014,0 0,0
25.05.2018 00:00:00 20,3 14,9 6 3 10 6 WNW 1014,1 0,1
24.05.2018 23:00:00 21,1 14,0 8 4 14 8 NNE 1013,5 0,0
24.05.2018 22:00:00 21,2 14,3 7 4 14 8 E 1013,0 0,0
24.05.2018 21:00:00 22,0 14,4 10 5 19 11 ESE 1012,6 0,0
24.05.2018 20:00:00 23,4 13,9 12 7 26 14 SSE 1012,4 -
24.05.2018 19:00:00 25,2 14,0 16 8 28 15 S 1012,2 0,0
24.05.2018 18:00:00 26,5 13,0 14 7 28 15 S 1011,8 0,0
24.05.2018 17:00:00 26,5 13,3 16 9 29 15 SSW 1012,1 0,0
24.05.2018 16:00:00 25,7 12,5 16 8 32 17 S 1012,6 0,0
24.05.2018 15:00:00 26,7 13,1 20 11 32 17 S 1012,6 0,0
24.05.2018 14:00:00 26,7 13,5 19 10 30 16 SSE 1012,8 -
24.05.2018 13:00:00 25,4 13,0 19 10 31 17 SSE 1013,0 0,0
24.05.2018 12:00:00 24,9 12,8 17 9 29 15 S 1012,8 0,0
24.05.2018 11:00:00 23,9 12,5 9 5 14 8 SE 1013,2 0,0
24.05.2018 10:00:00 21,3 10,4 2 1 13 7 WNW 1013,3 0,0
24.05.2018 09:00:00 18,7 10,3 4 2 9 5 NW 1013,3 0,0
24.05.2018 08:00:00 16,7 9,8 5 3 11 6 NW 1013,3 -
24.05.2018 07:00:00 16,9 10,0 8 5 13 7 WSW 1012,8 0,0
24.05.2018 06:00:00 17,6 10,2 8 4 14 7 W 1013,0 0,0
24.05.2018 05:00:00 17,1 9,8 9 5 12 7 W 1013,5 0,0
24.05.2018 04:00:00 18,0 9,8 4 2 7 4 NW 1014,1 0,0
24.05.2018 03:00:00 19,3 9,4 0 0 9 5 SW 1014,3 0,0
24.05.2018 02:00:00 20,1 9,9 3 2 5 3 NW 1014,9 -
24.05.2018 01:00:00 20,8 9,7 1 1 4 2 ENE 1015,2 0,0
24.05.2018 00:00:00 21,0 8,9 3 1 7 4 W 1015,9 0,0
23.05.2018 23:00:00 21,3 8,9 0 0 4 2 N 1015,0 0,0
23.05.2018 22:00:00 22,1 9,3 4 2 7 4 S 1014,7 0,0
23.05.2018 21:00:00 23,6 9,2 4 2 9 5 SSE 1014,3 0,0
23.05.2018 20:00:00 24,5 10,0 7 4 10 6 SSE 1013,9 -
23.05.2018 19:00:00 24,7 10,2 5 3 14 8 S 1013,8 0,0
23.05.2018 18:00:00 24,9 10,8 7 4 17 9 SSE 1014,1 0,0
23.05.2018 17:00:00 24,9 10,4 9 5 20 11 SSE 1014,7 0,0
23.05.2018 16:00:00 25,2 11,0 11 6 21 11 SE 1015,2 0,0
23.05.2018 15:00:00 24,8 11,7 10 5 22 12 SE 1015,8 0,0
23.05.2018 14:00:00 26,1 10,6 11 6 18 10 SSE 1015,9 -
23.05.2018 13:00:00 23,1 12,7 7 4 17 9 SW 1016,4 0,0
23.05.2018 12:00:00 21,1 12,5 4 2 10 6 NE 1016,1 0,0
23.05.2018 11:00:00 20,1 12,3 7 4 11 6 WSW 1016,9 0,0
23.05.2018 10:00:00 19,0 12,7 6 3 12 6 WNW 1016,8 0,0
23.05.2018 09:00:00 17,1 12,4 6 4 12 6 WNW 1016,8 0,0
23.05.2018 08:00:00 14,4 11,6 6 4 10 5 W 1016,8 -
23.05.2018 07:00:00 15,3 11,9 4 2 8 4 W 1016,2 0,0
23.05.2018 06:00:00 15,3 12,2 3 2 5 3 WNW 1016,2 0,0
23.05.2018 05:00:00 16,3 12,2 4 2 10 6 W 1016,0 0,0
23.05.2018 04:00:00 16,9 15,1 4 2 8 4 NNW 1016,0 0,0
23.05.2018 03:00:00 17,2 14,3 4 2 6 3 WNW 1016,4 0,0
23.05.2018 02:00:00 18,3 13,4 0 0 8 5 N 1016,5 -
23.05.2018 01:00:00 18,6 13,7 6 4 11 6 E 1016,5 0,0
23.05.2018 00:00:00 18,9 14,1 7 4 11 6 E 1016,4 0,0
22.05.2018 23:00:00 19,2 13,2 7 4 12 6 SE 1015,5 0,0
22.05.2018 22:00:00 19,9 12,1 5 3 16 9 ESE 1014,7 0,0
22.05.2018 21:00:00 22,3 11,3 10 5 15 8 SE 1014,1 0,0
22.05.2018 20:00:00 22,4 13,2 10 5 18 10 ESE 1014,3 -
22.05.2018 19:00:00 22,2 13,6 12 7 21 12 SE 1014,4 0,0
22.05.2018 18:00:00 22,8 14,1 14 7 22 12 SE 1014,5 0,0
22.05.2018 17:00:00 23,0 13,5 12 7 23 12 SE 1014,6 0,0
22.05.2018 16:00:00 23,5 13,1 13 7 24 13 ESE 1014,8 0,0
22.05.2018 15:00:00 23,5 12,2 13 7 24 13 ESE 1015,0 0,0
22.05.2018 14:00:00 23,8 13,4 12 7 19 10 SE 1015,0 -
22.05.2018 13:00:00 23,9 13,8 11 6 19 10 SE 1014,9 0,0
22.05.2018 12:00:00 23,7 15,0 9 5 16 9 SSE 1014,8 0,0
22.05.2018 11:00:00 21,7 14,1 11 6 16 9 WSW 1015,0 0,0
22.05.2018 10:00:00 19,2 14,4 7 4 14 8 W 1015,1 0,0
22.05.2018 09:00:00 16,6 13,6 9 5 16 9 WNW 1015,0 0,0
22.05.2018 08:00:00 15,9 13,2 11 6 16 9 WNW 1014,7 -
22.05.2018 07:00:00 15,9 13,1 9 5 22 12 NW 1014,3 0,0

tt = Température de l'air
td = dewpoint
ff = Vitesse du vent
fx = gusts
dd = Direction du vent
ppp = reduced air pressure
rr = Quantités de précipitations

stations d'obs. à proximité